createdAt,value
2019-05-28T00:01:16.947Z,14.17
2019-05-28T00:04:05.848Z,16.77
2019-05-28T00:06:54.687Z,13.20
2019-05-28T00:09:43.488Z,13.27
2019-05-28T00:12:32.448Z,15.30
2019-05-28T00:15:21.313Z,12.53
2019-05-28T00:18:10.503Z,14.03
2019-05-28T00:20:59.274Z,15.87
2019-05-28T00:23:48.101Z,14.47
2019-05-28T00:26:36.934Z,16.97
2019-05-28T00:29:18.490Z,15.47
2019-05-28T00:31:59.757Z,18.33
2019-05-28T00:34:41.298Z,14.80
2019-05-28T00:37:22.957Z,16.80
2019-05-28T00:40:04.735Z,23.17
2019-05-28T00:42:46.586Z,15.13
2019-05-28T00:45:28.175Z,15.27
2019-05-28T00:48:09.854Z,13.83
2019-05-28T00:50:51.437Z,15.90
2019-05-28T00:53:33.043Z,15.27
2019-05-28T00:56:14.579Z,18.63
2019-05-28T00:58:56.011Z,14.90
2019-05-28T01:01:38.158Z,13.93
2019-05-28T01:04:19.493Z,17.57
2019-05-28T01:07:03.718Z,13.47
2019-05-28T01:09:45.517Z,13.80
2019-05-28T01:15:09.412Z,16.27
2019-05-28T01:20:32.943Z,17.30
2019-05-28T01:23:14.482Z,20.23
2019-05-28T01:25:56.545Z,17.53
2019-05-28T01:28:37.808Z,14.50
2019-05-28T01:31:18.590Z,15.00
2019-05-28T01:34:00.524Z,15.83
2019-05-28T01:36:42.038Z,17.53
2019-05-28T01:39:23.196Z,16.67
2019-05-28T01:42:04.628Z,12.07
2019-05-28T01:44:45.963Z,16.97
2019-05-28T01:47:27.561Z,13.33
2019-05-28T01:50:08.925Z,15.10
2019-05-28T01:52:50.465Z,13.73
2019-05-28T01:55:32.323Z,13.00
2019-05-28T02:01:11.561Z,18.60
2019-05-28T02:03:39.442Z,12.43
2019-05-28T02:06:20.788Z,12.80
2019-05-28T02:09:02.312Z,14.07
2019-05-28T02:11:43.670Z,11.70
2019-05-28T02:14:25.397Z,15.63
2019-05-28T02:17:06.723Z,11.90
2019-05-28T02:19:48.174Z,14.13
2019-05-28T02:22:29.705Z,17.50
2019-05-28T02:25:11.374Z,11.77
2019-05-28T02:27:53.053Z,12.17
2019-05-28T02:30:34.762Z,14.10
2019-05-28T02:33:16.371Z,13.83
2019-05-28T02:35:58.285Z,11.50
2019-05-28T02:38:39.683Z,11.63
2019-05-28T02:41:20.912Z,12.00
2019-05-28T02:44:02.531Z,12.50
2019-05-28T02:46:44.175Z,10.70
2019-05-28T02:49:25.397Z,15.73
2019-05-28T02:52:06.681Z,13.03
2019-05-28T02:54:48.464Z,13.00
2019-05-28T02:57:30.696Z,17.50
2019-05-28T03:00:11.881Z,18.23
2019-05-28T03:02:52.798Z,15.70
2019-05-28T03:05:32.986Z,12.47
2019-05-28T03:08:42.078Z,13.63
2019-05-28T03:11:31.266Z,15.07
2019-05-28T03:14:20.090Z,12.40
2019-05-28T03:17:29.146Z,14.67
2019-05-28T03:20:18.064Z,11.00
2019-05-28T03:23:06.959Z,14.77
2019-05-28T03:25:55.824Z,12.03
2019-05-28T03:28:44.741Z,12.13
2019-05-28T03:31:26.243Z,12.97
2019-05-28T03:34:07.853Z,13.77
2019-05-28T03:37:16.962Z,13.07
2019-05-28T03:40:13.865Z,14.87
2019-05-28T03:43:02.774Z,11.00
2019-05-28T03:45:51.639Z,13.33
2019-05-28T03:48:40.406Z,13.90
2019-05-28T03:51:29.232Z,12.57
2019-05-28T03:54:18.374Z,15.00
2019-05-28T03:57:07.556Z,14.23
2019-05-28T03:59:58.020Z,12.30
2019-05-28T04:02:46.859Z,21.47
2019-05-28T04:05:35.675Z,15.63
2019-05-28T04:08:24.454Z,13.73
2019-05-28T04:11:13.258Z,14.83
2019-05-28T04:14:02.503Z,20.43
2019-05-28T04:16:51.346Z,13.97
2019-05-28T04:19:40.250Z,13.23
2019-05-28T04:22:29.154Z,12.53
2019-05-28T04:25:17.938Z,14.20
2019-05-28T04:28:07.139Z,14.50
2019-05-28T04:30:56.023Z,14.10
2019-05-28T04:33:44.887Z,15.23
2019-05-28T04:36:34.110Z,19.90
2019-05-28T04:39:22.872Z,13.47
2019-05-28T04:42:12.163Z,17.40
2019-05-28T04:45:00.950Z,14.60
2019-05-28T04:47:50.175Z,15.33
2019-05-28T04:50:39.419Z,17.23
2019-05-28T04:53:28.782Z,19.93
2019-05-28T04:56:18.226Z,17.73
2019-05-28T04:59:07.014Z,13.90
2019-05-28T05:01:55.834Z,17.37
2019-05-28T05:04:45.051Z,15.13
2019-05-28T05:07:34.313Z,16.63
2019-05-28T05:10:23.118Z,16.17
2019-05-28T05:13:12.916Z,23.60
2019-05-28T05:16:01.707Z,16.97
2019-05-28T05:18:50.528Z,15.20
2019-05-28T05:21:39.409Z,14.80
2019-05-28T05:24:28.231Z,14.80
2019-05-28T05:27:17.469Z,15.97
2019-05-28T05:30:06.452Z,14.07
2019-05-28T05:32:47.771Z,14.33
2019-05-28T05:35:29.576Z,18.00
2019-05-28T05:38:09.478Z,13.97
2019-05-28T05:40:58.683Z,12.47
2019-05-28T05:43:47.545Z,14.50
2019-05-28T05:46:36.316Z,12.67
2019-05-28T05:49:25.136Z,11.30
2019-05-28T05:52:13.978Z,10.90
2019-05-28T05:55:02.799Z,10.73
2019-05-28T05:57:51.965Z,14.30
2019-05-28T06:00:40.756Z,14.63
2019-05-28T06:03:40.130Z,13.23
2019-05-28T06:06:20.058Z,14.47
2019-05-28T06:09:09.231Z,14.33
2019-05-28T06:11:39.088Z,12.23
2019-05-28T06:14:09.057Z,12.13
2019-05-28T06:16:58.328Z,12.60
2019-05-28T06:19:47.155Z,11.33
2019-05-28T06:22:35.948Z,11.97
2019-05-28T06:25:25.574Z,16.33
2019-05-28T06:28:15.733Z,11.70
2019-05-28T06:31:04.669Z,10.97
2019-05-28T06:33:57.148Z,14.20
2019-05-28T06:36:36.031Z,11.20
2019-05-28T06:39:17.898Z,13.77
2019-05-28T06:41:59.652Z,13.93
2019-05-28T06:44:41.094Z,13.90
2019-05-28T06:47:11.529Z,12.30
2019-05-28T06:50:01.148Z,14.00
2019-05-28T06:52:50.000Z,15.27
2019-05-28T06:58:39.434Z,12.33
2019-05-28T07:01:24.026Z,12.67
2019-05-28T07:04:19.182Z,13.97
2019-05-28T07:07:03.540Z,12.70
2019-05-28T07:09:52.720Z,12.90
2019-05-28T07:12:41.499Z,11.70
2019-05-28T07:15:30.722Z,14.53
2019-05-28T07:18:19.522Z,11.27
2019-05-28T07:21:08.355Z,13.50
2019-05-28T07:23:57.852Z,16.67
2019-05-28T07:26:46.664Z,12.63
2019-05-28T07:29:35.449Z,13.93
2019-05-28T07:32:24.281Z,16.30
2019-05-28T07:37:47.556Z,14.60
2019-05-28T07:40:32.096Z,15.20
2019-05-28T07:43:13.549Z,15.60
2019-05-28T07:45:54.698Z,14.80
2019-05-28T07:48:35.914Z,19.50
2019-05-28T07:51:17.397Z,14.07
2019-05-28T07:53:58.584Z,14.27
2019-05-28T07:56:39.976Z,12.70
2019-05-28T07:59:21.706Z,11.60
2019-05-28T08:02:02.974Z,13.37
2019-05-28T08:04:47.584Z,11.40
2019-05-28T08:07:27.188Z,13.00
2019-05-28T08:10:08.962Z,15.30
2019-05-28T08:12:50.832Z,13.27
2019-05-28T08:15:31.965Z,12.87
2019-05-28T08:18:13.174Z,15.07
2019-05-28T08:20:54.943Z,16.70
2019-05-28T08:23:36.556Z,15.97
2019-05-28T08:26:18.190Z,16.47
2019-05-28T08:28:59.954Z,14.10
2019-05-28T08:34:23.346Z,12.83
2019-05-28T08:37:06.506Z,13.57
2019-05-28T08:39:47.473Z,14.17
2019-05-28T08:42:29.168Z,15.50
2019-05-28T08:45:10.694Z,12.53
2019-05-28T08:47:40.649Z,12.53
2019-05-28T08:50:34.236Z,15.93
2019-05-28T08:53:19.904Z,14.17
2019-05-28T08:56:08.666Z,13.67
2019-05-28T08:58:57.926Z,12.87
2019-05-28T09:01:46.731Z,14.37
2019-05-28T09:04:16.599Z,18.83
2019-05-28T09:07:05.371Z,15.03
2019-05-28T09:09:54.242Z,18.00
2019-05-28T09:12:43.056Z,15.50
2019-05-28T09:15:32.379Z,17.97
2019-05-28T09:18:21.222Z,17.60
2019-05-28T09:21:10.446Z,22.23
2019-05-28T09:23:59.309Z,24.03
2019-05-28T09:26:48.625Z,28.43
2019-05-28T09:29:37.449Z,24.10
2019-05-28T09:32:26.226Z,28.13
2019-05-28T09:35:07.395Z,23.47
2019-05-28T09:37:48.561Z,27.60
2019-05-28T09:40:48.343Z,21.70
2019-05-28T09:43:12.710Z,29.23
2019-05-28T09:45:53.836Z,24.93
2019-05-28T09:48:35.564Z,26.77
2019-05-28T09:51:17.090Z,26.87
2019-05-28T09:53:58.563Z,24.30
2019-05-28T09:59:42.263Z,28.77
2019-05-28T10:02:23.382Z,28.70
2019-05-28T10:05:04.499Z,29.43
2019-05-28T10:07:44.491Z,30.60
2019-05-28T10:10:33.286Z,30.30
2019-05-28T10:13:37.155Z,41.03
2019-05-28T10:16:13.037Z,37.23
2019-05-28T10:19:01.812Z,38.70
2019-05-28T10:21:50.619Z,38.67
2019-05-28T10:24:40.134Z,40.30
2019-05-28T10:27:29.809Z,39.83
2019-05-28T10:30:38.843Z,37.40
2019-05-28T10:33:27.955Z,39.50
2019-05-28T10:36:09.333Z,41.50
2019-05-28T10:38:50.444Z,39.37
2019-05-28T10:41:32.086Z,42.97
2019-05-28T10:44:13.763Z,45.90
2019-05-28T10:46:55.398Z,43.40
2019-05-28T10:49:37.329Z,46.30
2019-05-28T10:52:18.749Z,42.40
2019-05-28T10:55:02.731Z,43.37
2019-05-28T10:57:43.913Z,40.80
2019-05-28T11:00:25.107Z,37.60
2019-05-28T11:03:06.524Z,39.60
2019-05-28T11:05:48.281Z,37.90
2019-05-28T11:08:29.958Z,36.43
2019-05-28T11:11:11.367Z,36.40
2019-05-28T11:13:53.774Z,33.73
2019-05-28T11:16:35.208Z,26.03
2019-05-28T11:19:16.399Z,25.93
2019-05-28T11:21:58.096Z,28.13
2019-05-28T11:24:39.375Z,25.60
2019-05-28T11:27:23.836Z,22.03
2019-05-28T11:30:04.283Z,14.70
2019-05-28T11:32:46.460Z,13.23
2019-05-28T11:35:28.231Z,11.17
2019-05-28T11:40:51.201Z,13.70
2019-05-28T11:43:32.501Z,13.80
2019-05-28T11:46:14.270Z,13.17
2019-05-28T11:48:55.699Z,13.50
2019-05-28T11:51:36.887Z,13.60
2019-05-28T11:54:18.536Z,14.77
2019-05-28T11:56:59.854Z,12.83
2019-05-28T11:59:41.296Z,10.10
2019-05-28T12:02:22.513Z,10.83
2019-05-28T12:05:03.955Z,17.60
2019-05-28T12:07:45.584Z,14.10
2019-05-28T12:10:27.350Z,14.07
2019-05-28T12:15:50.961Z,11.43
2019-05-28T12:18:32.232Z,13.80
2019-05-28T12:21:13.608Z,14.20
2019-05-28T12:23:55.036Z,14.53
2019-05-28T12:26:36.420Z,13.30
2019-05-28T12:29:18.069Z,10.00
2019-05-28T12:32:00.885Z,9.80
2019-05-28T12:34:42.928Z,15.50
2019-05-28T12:37:24.799Z,11.90
2019-05-28T12:40:06.046Z,11.70
2019-05-28T12:42:47.470Z,11.50
2019-05-28T12:45:35.368Z,12.20
2019-05-28T12:48:13.282Z,10.17
2019-05-28T12:50:54.981Z,8.87
2019-05-28T12:53:49.313Z,7.60
2019-05-28T12:56:19.075Z,10.50
2019-05-28T12:59:01.091Z,9.10
2019-05-28T13:01:42.176Z,10.60
2019-05-28T13:04:23.914Z,7.60
2019-05-28T13:07:05.659Z,11.33
2019-05-28T13:09:49.237Z,7.87
2019-05-28T13:12:30.456Z,7.73
2019-05-28T13:15:11.940Z,10.10
2019-05-28T13:17:53.464Z,13.73
2019-05-28T13:20:34.804Z,8.03
2019-05-28T13:23:16.449Z,8.50
2019-05-28T13:28:40.142Z,11.10
2019-05-28T13:31:21.531Z,10.50
2019-05-28T13:34:03.242Z,4.53
2019-05-28T13:36:44.438Z,4.20
2019-05-28T13:39:25.819Z,5.53
2019-05-28T13:42:07.523Z,4.70
2019-05-28T13:44:49.108Z,4.63
2019-05-28T13:47:33.963Z,5.47
2019-05-28T13:50:12.760Z,3.93
2019-05-28T13:52:54.366Z,5.90
2019-05-28T13:55:35.566Z,4.90
2019-05-28T13:58:17.263Z,4.43
2019-05-28T14:00:58.885Z,4.40
2019-05-28T14:03:39.954Z,5.20
2019-05-28T14:06:21.354Z,4.87
2019-05-28T14:09:02.962Z,5.80
2019-05-28T14:11:44.650Z,6.00
2019-05-28T14:14:26.205Z,5.47
2019-05-28T14:17:07.500Z,9.93
2019-05-28T14:19:38.799Z,12.00
2019-05-28T14:22:33.798Z,7.10
2019-05-28T14:25:18.612Z,11.13
2019-05-28T14:28:07.720Z,7.97
2019-05-28T14:30:59.856Z,10.30
2019-05-28T14:33:28.880Z,11.20
2019-05-28T14:36:10.838Z,11.10
2019-05-28T14:39:02.431Z,10.73
2019-05-28T14:41:35.458Z,13.03
2019-05-28T14:44:16.818Z,11.53
2019-05-28T14:46:58.533Z,12.57
2019-05-28T14:49:39.622Z,9.40
2019-05-28T14:52:21.046Z,9.50
2019-05-28T14:55:02.620Z,11.30
2019-05-28T14:57:42.525Z,13.50
2019-05-28T15:00:31.774Z,8.23
2019-05-28T15:03:20.752Z,11.60
2019-05-28T15:06:10.065Z,9.80
2019-05-28T15:08:59.173Z,9.23
2019-05-28T15:11:47.947Z,17.00
2019-05-28T15:14:36.769Z,14.83
2019-05-28T15:17:26.632Z,9.70
2019-05-28T15:20:16.444Z,12.77
2019-05-28T15:23:05.233Z,11.60
2019-05-28T15:25:54.223Z,8.83
2019-05-28T15:28:43.492Z,11.20
2019-05-28T15:31:32.303Z,11.97
2019-05-28T15:34:21.093Z,9.10
2019-05-28T15:37:02.850Z,9.43
2019-05-28T15:39:44.475Z,5.70
2019-05-28T15:42:25.878Z,5.43
2019-05-28T15:45:07.087Z,5.23
2019-05-28T15:47:48.670Z,6.37
2019-05-28T15:50:29.927Z,5.77
2019-05-28T15:53:11.318Z,5.23
2019-05-28T15:58:51.303Z,7.07
2019-05-28T16:01:32.957Z,5.67
2019-05-28T16:04:14.786Z,5.80
2019-05-28T16:06:56.667Z,7.50
2019-05-28T16:09:53.112Z,6.00
2019-05-28T16:12:21.635Z,4.50
2019-05-28T16:15:04.666Z,4.60
2019-05-28T16:17:45.882Z,3.93
2019-05-28T16:20:27.399Z,3.83
2019-05-28T16:23:12.054Z,7.40
2019-05-28T16:25:53.169Z,3.73
2019-05-28T16:28:34.531Z,3.33
2019-05-28T16:31:15.792Z,5.80
2019-05-28T16:33:57.478Z,4.10
2019-05-28T16:36:39.072Z,4.10
2019-05-28T16:39:20.637Z,3.63
2019-05-28T16:42:02.381Z,4.97
2019-05-28T16:44:44.282Z,4.17
2019-05-28T16:47:25.444Z,4.20
2019-05-28T16:50:07.149Z,10.80
2019-05-28T16:52:48.573Z,6.50
2019-05-28T16:55:29.985Z,8.20
2019-05-28T16:58:11.479Z,4.80
2019-05-28T17:00:41.342Z,5.03
2019-05-28T17:03:30.212Z,4.63
2019-05-28T17:06:19.050Z,7.03
2019-05-28T17:09:08.264Z,5.17
2019-05-28T17:11:57.559Z,5.43
2019-05-28T17:14:46.780Z,7.90
2019-05-28T17:17:35.563Z,7.37
2019-05-28T17:20:24.942Z,5.83
2019-05-28T17:23:14.597Z,8.33
2019-05-28T17:26:03.410Z,7.73
2019-05-28T17:28:52.608Z,8.60
2019-05-28T17:31:41.528Z,5.83
2019-05-28T17:34:30.997Z,5.77
2019-05-28T17:37:14.749Z,4.83
2019-05-28T17:39:56.420Z,4.97
2019-05-28T17:42:38.046Z,3.43
2019-05-28T17:45:19.966Z,3.20
2019-05-28T17:48:01.988Z,5.07
2019-05-28T17:50:44.317Z,4.37
2019-05-28T17:53:26.844Z,3.90
2019-05-28T17:56:08.274Z,3.97
2019-05-28T17:58:51.141Z,7.23
2019-05-28T18:01:32.335Z,4.30
2019-05-28T18:04:15.911Z,5.07
2019-05-28T18:06:57.885Z,6.03
2019-05-28T18:09:39.723Z,4.77
2019-05-28T18:12:21.361Z,5.13
2019-05-28T18:15:03.401Z,4.20
2019-05-28T18:17:45.359Z,5.80
2019-05-28T18:20:27.086Z,7.03
2019-05-28T18:23:09.161Z,9.93
2019-05-28T18:25:50.535Z,6.87
2019-05-28T18:28:32.099Z,5.07
2019-05-28T18:31:13.946Z,5.10
2019-05-28T18:33:55.741Z,5.90
2019-05-28T18:36:38.557Z,4.03
2019-05-28T18:42:20.070Z,5.13
2019-05-28T18:45:09.905Z,5.27
2019-05-28T18:47:41.220Z,7.83
2019-05-28T18:50:33.138Z,8.90
2019-05-28T18:53:22.495Z,4.40
2019-05-28T18:56:17.438Z,4.67
2019-05-28T18:59:04.107Z,6.07
2019-05-28T19:01:53.421Z,7.83
2019-05-28T19:04:24.270Z,10.40
2019-05-28T19:07:13.118Z,4.40
2019-05-28T19:10:02.048Z,7.80
2019-05-28T19:12:51.097Z,4.03
2019-05-28T19:15:40.126Z,4.63
2019-05-28T19:18:29.437Z,4.57
2019-05-28T19:21:18.357Z,6.10
2019-05-28T19:24:07.811Z,9.03
2019-05-28T19:26:56.295Z,5.07
2019-05-28T19:29:50.392Z,9.00
2019-05-28T19:32:37.353Z,3.87
2019-05-28T19:35:28.433Z,5.73
2019-05-28T19:38:18.107Z,3.67
2019-05-28T19:41:07.454Z,6.07
2019-05-28T19:43:56.258Z,4.40
2019-05-28T19:46:45.173Z,3.97
2019-05-28T19:49:34.289Z,4.13
2019-05-28T19:52:23.034Z,5.50
2019-05-28T19:55:11.956Z,3.37
2019-05-28T19:58:00.993Z,2.87
2019-05-28T20:00:50.278Z,5.00
2019-05-28T20:03:39.081Z,6.70
2019-05-28T20:06:28.098Z,3.33
2019-05-28T20:09:17.232Z,4.03
2019-05-28T20:11:47.198Z,3.80
2019-05-28T20:14:36.168Z,3.80
2019-05-28T20:17:25.547Z,3.57
2019-05-28T20:20:14.889Z,4.37
2019-05-28T20:23:04.258Z,4.33
2019-05-28T20:25:54.475Z,3.43
2019-05-28T20:28:44.259Z,3.90
2019-05-28T20:31:26.027Z,3.90
2019-05-28T20:34:07.825Z,3.97
2019-05-28T20:36:49.943Z,4.50
2019-05-28T20:39:31.314Z,3.37
2019-05-28T20:42:02.012Z,4.90
2019-05-28T20:48:00.399Z,4.50
2019-05-28T20:50:50.276Z,5.57
2019-05-28T20:53:39.302Z,4.27
2019-05-28T20:56:28.100Z,6.70
2019-05-28T20:59:16.982Z,2.50
2019-05-28T21:02:05.812Z,2.80
2019-05-28T21:04:54.613Z,3.33
2019-05-28T21:07:24.494Z,5.60
2019-05-28T21:10:13.338Z,2.60
2019-05-28T21:13:02.574Z,8.17
2019-05-28T21:15:52.634Z,5.53
2019-05-28T21:18:42.451Z,4.20
2019-05-28T21:21:31.822Z,6.50
2019-05-28T21:24:21.446Z,5.13
2019-05-28T21:27:12.286Z,4.70
2019-05-28T21:30:01.161Z,3.90
2019-05-28T21:32:42.181Z,4.40
2019-05-28T21:35:24.348Z,4.80
2019-05-28T21:38:05.811Z,10.43
2019-05-28T21:40:47.646Z,9.80
2019-05-28T21:43:28.950Z,4.90
2019-05-28T21:46:10.690Z,6.47
2019-05-28T21:48:52.393Z,5.83
2019-05-28T21:51:33.825Z,3.97
2019-05-28T21:54:15.358Z,5.33
2019-05-28T21:56:57.327Z,4.87
2019-05-28T21:59:38.381Z,5.20
2019-05-28T22:02:19.899Z,5.03
2019-05-28T22:04:49.957Z,4.73
2019-05-28T22:07:39.038Z,8.03
2019-05-28T22:10:27.760Z,5.93
2019-05-28T22:13:22.112Z,4.53
2019-05-28T22:15:48.601Z,5.77
2019-05-28T22:18:37.946Z,4.97
2019-05-28T22:21:26.980Z,6.50
2019-05-28T22:24:15.757Z,9.00
2019-05-28T22:27:04.642Z,7.20
2019-05-28T22:29:53.592Z,7.57
2019-05-28T22:32:35.115Z,9.07
2019-05-28T22:35:16.649Z,7.20
2019-05-28T22:37:59.122Z,6.43
2019-05-28T22:40:40.263Z,6.63
2019-05-28T22:43:31.069Z,7.40
2019-05-28T22:46:05.311Z,7.03
2019-05-28T22:48:46.967Z,8.00
2019-05-28T22:51:28.536Z,8.80
2019-05-28T22:54:09.345Z,7.97
2019-05-28T22:56:50.769Z,11.93
2019-05-28T22:59:32.266Z,9.67
2019-05-28T23:02:13.367Z,10.77
2019-05-28T23:04:54.665Z,8.50
2019-05-28T23:07:35.999Z,7.23
2019-05-28T23:10:17.358Z,7.80
2019-05-28T23:12:59.174Z,10.90
2019-05-28T23:15:40.045Z,12.17
2019-05-28T23:18:21.876Z,12.63
2019-05-28T23:21:03.222Z,8.30
2019-05-28T23:23:33.122Z,9.20
2019-05-28T23:26:21.892Z,8.47
2019-05-28T23:29:11.912Z,7.07
2019-05-28T23:31:53.757Z,8.90
2019-05-28T23:34:35.257Z,9.57
2019-05-28T23:37:16.690Z,7.03
2019-05-28T23:39:57.959Z,6.00
2019-05-28T23:42:27.741Z,6.00
2019-05-28T23:45:16.708Z,6.90
2019-05-28T23:48:10.842Z,8.03
2019-05-28T23:50:55.871Z,8.80
2019-05-28T23:53:44.583Z,10.10
2019-05-28T23:56:33.770Z,9.10
2019-05-28T23:59:22.503Z,12.00
